createdAt,value
2022-11-29T00:00:56.296Z,40.12
2022-11-29T00:01:56.427Z,40.18
2022-11-29T00:02:56.480Z,42.44
2022-11-29T00:03:56.267Z,40.12
2022-11-29T00:04:56.252Z,40.12
2022-11-29T00:05:56.320Z,40.12
2022-11-29T00:06:56.228Z,40.18
2022-11-29T00:07:56.253Z,40.18
2022-11-29T00:08:56.210Z,40.18
2022-11-29T00:09:56.203Z,40.23
2022-11-29T00:10:56.185Z,42.55
2022-11-29T00:11:56.167Z,40.18
2022-11-29T00:12:56.146Z,40.12
2022-11-29T00:13:56.133Z,40.23
2022-11-29T00:14:56.124Z,40.18
2022-11-29T00:15:56.119Z,40.23
2022-11-29T00:16:56.201Z,40.12
2022-11-29T00:17:56.092Z,40.18
2022-11-29T00:18:56.079Z,40.12
2022-11-29T00:19:56.067Z,40.18
2022-11-29T00:20:56.048Z,40.18
2022-11-29T00:21:56.060Z,40.18
2022-11-29T00:22:56.029Z,40.28
2022-11-29T00:23:56.016Z,40.12
2022-11-29T00:24:56.003Z,40.18
2022-11-29T00:25:55.992Z,40.18
2022-11-29T00:26:55.974Z,40.12
2022-11-29T00:27:55.968Z,40.12
2022-11-29T00:28:55.958Z,40.07
2022-11-29T00:29:55.936Z,40.18
2022-11-29T00:30:55.977Z,40.23
2022-11-29T00:31:55.915Z,40.07
2022-11-29T00:32:55.903Z,40.23
2022-11-29T00:33:55.896Z,40.12
2022-11-29T00:34:59.361Z,40.23
2022-11-29T00:35:55.865Z,40.23
2022-11-29T00:36:55.850Z,40.18
2022-11-29T00:37:55.959Z,40.12
2022-11-29T00:38:55.825Z,40.18
2022-11-29T00:39:55.819Z,40.18
2022-11-29T00:40:55.805Z,40.12
2022-11-29T00:41:55.797Z,40.18
2022-11-29T00:42:55.776Z,40.23
2022-11-29T00:43:55.764Z,40.18
2022-11-29T00:44:55.756Z,40.12
2022-11-29T00:45:55.773Z,40.12
2022-11-29T00:46:55.734Z,40.23
2022-11-29T00:47:55.712Z,40.18
2022-11-29T00:48:55.700Z,40.07
2022-11-29T00:49:55.693Z,40.12
2022-11-29T00:50:55.694Z,40.18
2022-11-29T00:51:55.672Z,40.23
2022-11-29T00:52:55.649Z,40.18
2022-11-29T00:53:55.668Z,40.18
2022-11-29T00:54:55.630Z,40.07
2022-11-29T00:55:55.619Z,40.18
2022-11-29T00:56:55.600Z,40.18
2022-11-29T00:57:55.587Z,40.18
2022-11-29T00:58:55.580Z,40.18
2022-11-29T00:59:55.566Z,40.12
2022-11-29T01:00:55.637Z,40.07
2022-11-29T01:01:55.544Z,40.12
2022-11-29T01:02:55.538Z,40.18
2022-11-29T01:03:55.523Z,40.23
2022-11-29T01:04:55.509Z,40.18
2022-11-29T01:05:55.497Z,40.18
2022-11-29T01:06:55.487Z,40.23
2022-11-29T01:07:55.514Z,40.18
2022-11-29T01:08:55.455Z,40.12
2022-11-29T01:09:55.474Z,40.18
2022-11-29T01:10:55.436Z,40.07
2022-11-29T01:11:55.417Z,40.12
2022-11-29T01:12:55.414Z,40.23
2022-11-29T01:13:55.394Z,40.18
2022-11-29T01:14:55.387Z,40.12
2022-11-29T01:15:55.375Z,40.23
2022-11-29T01:16:55.433Z,40.18
2022-11-29T01:17:55.349Z,40.12
2022-11-29T01:18:55.329Z,40.12
2022-11-29T01:19:55.317Z,40.12
2022-11-29T01:20:55.304Z,40.28
2022-11-29T01:21:55.291Z,40.18
2022-11-29T01:22:55.285Z,40.12
2022-11-29T01:23:55.280Z,40.12
2022-11-29T01:24:55.263Z,40.23
2022-11-29T01:25:55.272Z,40.07
2022-11-29T01:26:55.236Z,40.18
2022-11-29T01:27:55.219Z,40.12
2022-11-29T01:28:55.205Z,40.18
2022-11-29T01:29:55.197Z,40.12
2022-11-29T01:30:55.226Z,40.12
2022-11-29T01:31:55.171Z,40.18
2022-11-29T01:32:55.153Z,40.28
2022-11-29T01:33:55.155Z,40.18
2022-11-29T01:34:55.137Z,40.18
2022-11-29T01:35:55.127Z,40.23
2022-11-29T01:36:55.112Z,40.18
2022-11-29T01:37:55.100Z,40.18
2022-11-29T01:38:55.086Z,40.18
2022-11-29T01:39:55.068Z,40.18
2022-11-29T01:40:55.060Z,40.23
2022-11-29T01:41:55.068Z,40.23
2022-11-29T01:42:55.039Z,40.07
2022-11-29T01:43:55.019Z,40.18
2022-11-29T01:44:55.009Z,40.07
2022-11-29T01:45:55.061Z,40.18
2022-11-29T01:46:54.983Z,40.18
2022-11-29T01:47:54.964Z,40.28
2022-11-29T01:48:54.952Z,40.18
2022-11-29T01:49:54.940Z,40.12
2022-11-29T01:50:54.932Z,40.18
2022-11-29T01:51:54.914Z,40.12
2022-11-29T01:52:54.902Z,40.23
2022-11-29T01:53:54.896Z,40.18
2022-11-29T01:54:54.882Z,40.12
2022-11-29T01:55:55.024Z,40.12
2022-11-29T01:56:54.864Z,40.18
2022-11-29T01:57:54.869Z,40.18
2022-11-29T01:58:54.829Z,40.12
2022-11-29T01:59:54.815Z,40.18
2022-11-29T02:00:54.936Z,40.23
2022-11-29T02:01:54.800Z,40.12
2022-11-29T02:02:54.846Z,40.12
2022-11-29T02:03:54.772Z,40.12
2022-11-29T02:04:54.753Z,40.18
2022-11-29T02:05:54.748Z,40.18
2022-11-29T02:06:54.737Z,40.18
2022-11-29T02:07:54.777Z,40.12
2022-11-29T02:08:54.705Z,40.18
2022-11-29T02:09:54.690Z,40.12
2022-11-29T02:10:54.678Z,40.12
2022-11-29T02:11:54.670Z,40.07
2022-11-29T02:12:54.655Z,40.23
2022-11-29T02:13:54.672Z,40.23
2022-11-29T02:14:54.644Z,40.28
2022-11-29T02:15:54.680Z,40.12
2022-11-29T02:16:56.677Z,40.07
2022-11-29T02:17:54.590Z,40.07
2022-11-29T02:18:54.599Z,42.50
2022-11-29T02:19:54.566Z,40.18
2022-11-29T02:20:54.555Z,40.12
2022-11-29T02:21:54.549Z,40.18
2022-11-29T02:22:54.541Z,40.12
2022-11-29T02:23:54.520Z,40.12
2022-11-29T02:24:54.503Z,40.12
2022-11-29T02:25:54.494Z,40.18
2022-11-29T02:26:54.484Z,40.23
2022-11-29T02:27:54.468Z,40.23
2022-11-29T02:28:54.456Z,40.12
2022-11-29T02:29:54.468Z,40.18
2022-11-29T02:30:54.486Z,40.12
2022-11-29T02:31:54.423Z,40.23
2022-11-29T02:32:54.407Z,40.18
2022-11-29T02:33:54.394Z,40.18
2022-11-29T02:34:54.388Z,40.23
2022-11-29T02:35:54.369Z,40.23
2022-11-29T02:36:54.362Z,40.12
2022-11-29T02:37:54.343Z,40.18
2022-11-29T02:38:54.344Z,42.55
2022-11-29T02:39:54.328Z,40.18
2022-11-29T02:40:54.314Z,40.12
2022-11-29T02:41:54.295Z,40.12
2022-11-29T02:42:56.864Z,40.07
2022-11-29T02:43:54.277Z,40.18
2022-11-29T02:44:54.262Z,40.18
2022-11-29T02:45:54.332Z,40.12
2022-11-29T02:46:54.240Z,40.12
2022-11-29T02:47:54.221Z,40.23
2022-11-29T02:48:54.208Z,40.28
2022-11-29T02:49:54.200Z,40.23
2022-11-29T02:50:54.183Z,40.18
2022-11-29T02:51:54.169Z,40.18
2022-11-29T02:52:54.163Z,40.18
2022-11-29T02:53:54.155Z,40.18
2022-11-29T02:54:54.134Z,40.12
2022-11-29T02:55:54.122Z,40.23
2022-11-29T02:56:54.113Z,40.23
2022-11-29T02:57:54.096Z,40.23
2022-11-29T02:58:54.087Z,40.18
2022-11-29T02:59:54.077Z,40.28
2022-11-29T03:00:54.067Z,40.18
2022-11-29T03:01:54.160Z,40.18
2022-11-29T03:02:54.090Z,40.18
2022-11-29T03:03:54.022Z,40.18
2022-11-29T03:04:54.011Z,40.12
2022-11-29T03:05:54.004Z,40.12
2022-11-29T03:06:53.993Z,40.18
2022-11-29T03:07:54.000Z,40.07
2022-11-29T03:08:53.967Z,40.18
2022-11-29T03:09:53.952Z,40.12
2022-11-29T03:10:53.939Z,40.12
2022-11-29T03:11:53.920Z,40.12
2022-11-29T03:12:53.922Z,40.12
2022-11-29T03:13:53.892Z,40.23
2022-11-29T03:14:53.885Z,40.18
2022-11-29T03:15:53.992Z,40.28
2022-11-29T03:16:53.865Z,40.18
2022-11-29T03:17:53.887Z,40.18
2022-11-29T03:18:53.840Z,40.18
2022-11-29T03:19:53.820Z,40.12
2022-11-29T03:20:53.815Z,40.18
2022-11-29T03:21:53.802Z,40.23
2022-11-29T03:22:53.790Z,40.12
2022-11-29T03:23:53.779Z,40.18
2022-11-29T03:24:53.757Z,40.12
2022-11-29T03:25:53.750Z,40.12
2022-11-29T03:26:53.732Z,40.07
2022-11-29T03:27:53.732Z,40.18
2022-11-29T03:28:53.712Z,40.18
2022-11-29T03:29:53.699Z,38.88
2022-11-29T03:30:53.735Z,40.18
2022-11-29T03:31:53.678Z,40.18
2022-11-29T03:32:53.667Z,40.12
2022-11-29T03:33:53.678Z,40.18
2022-11-29T03:34:57.114Z,40.23
2022-11-29T03:35:53.626Z,40.18
2022-11-29T03:36:53.606Z,40.07
2022-11-29T03:37:53.592Z,40.18
2022-11-29T03:38:53.593Z,40.12
2022-11-29T03:39:53.575Z,40.18
2022-11-29T03:40:53.566Z,40.12
2022-11-29T03:41:53.546Z,40.18
2022-11-29T03:42:53.531Z,40.12
2022-11-29T03:43:53.522Z,40.18
2022-11-29T03:44:53.518Z,40.18
2022-11-29T03:45:53.586Z,40.23
2022-11-29T03:46:53.496Z,40.12
2022-11-29T03:47:53.482Z,40.07
2022-11-29T03:48:53.464Z,40.12
2022-11-29T03:49:53.477Z,40.12
2022-11-29T03:50:53.431Z,40.12
2022-11-29T03:51:53.421Z,40.28
2022-11-29T03:52:53.409Z,40.07
2022-11-29T03:53:53.404Z,40.18
2022-11-29T03:54:53.390Z,40.23
2022-11-29T03:55:53.381Z,40.28
2022-11-29T03:56:53.364Z,40.18
2022-11-29T03:57:53.345Z,40.18
2022-11-29T03:58:53.344Z,40.23
2022-11-29T03:59:53.332Z,40.18
2022-11-29T04:00:53.310Z,40.18
2022-11-29T04:01:53.328Z,40.23
2022-11-29T04:02:53.355Z,40.12
2022-11-29T04:03:53.278Z,40.12
2022-11-29T04:04:53.273Z,40.18
2022-11-29T04:05:53.283Z,38.93
2022-11-29T04:06:53.237Z,40.23
2022-11-29T04:07:53.270Z,40.23
2022-11-29T04:08:53.216Z,40.18
2022-11-29T04:09:53.200Z,40.23
2022-11-29T04:10:53.184Z,40.18
2022-11-29T04:11:53.184Z,40.23
2022-11-29T04:12:53.161Z,40.28
2022-11-29T04:13:53.155Z,40.07
2022-11-29T04:14:53.136Z,40.12
2022-11-29T04:15:53.175Z,40.23
2022-11-29T04:16:53.110Z,40.18
2022-11-29T04:17:53.104Z,40.18
2022-11-29T04:18:53.084Z,40.18
2022-11-29T04:19:53.084Z,40.18
2022-11-29T04:20:53.057Z,40.18
2022-11-29T04:21:53.081Z,40.12
2022-11-29T04:22:53.043Z,40.23
2022-11-29T04:23:53.023Z,40.12
2022-11-29T04:24:53.011Z,40.07
2022-11-29T04:25:52.997Z,40.23
2022-11-29T04:26:52.989Z,40.12
2022-11-29T04:27:52.978Z,40.12
2022-11-29T04:28:52.967Z,40.12
2022-11-29T04:29:52.946Z,40.07
2022-11-29T04:30:52.985Z,40.07
2022-11-29T04:31:52.920Z,40.12
2022-11-29T04:32:52.917Z,40.18
2022-11-29T04:33:52.905Z,40.12
2022-11-29T04:34:52.886Z,40.18
2022-11-29T04:35:52.880Z,40.12
2022-11-29T04:36:52.861Z,40.18
2022-11-29T04:37:52.878Z,40.18
2022-11-29T04:38:52.847Z,40.07
2022-11-29T04:39:52.824Z,40.23
2022-11-29T04:40:52.817Z,40.07
2022-11-29T04:41:52.806Z,40.18
2022-11-29T04:42:52.792Z,40.18
2022-11-29T04:43:52.785Z,40.12
2022-11-29T04:44:52.759Z,40.01
2022-11-29T04:45:52.751Z,40.23
2022-11-29T04:46:52.736Z,40.12
2022-11-29T04:47:52.729Z,40.18
2022-11-29T04:48:52.709Z,40.12
2022-11-29T04:49:52.699Z,40.18
2022-11-29T04:50:52.683Z,40.12
2022-11-29T04:51:52.682Z,40.18
2022-11-29T04:52:52.657Z,40.12
2022-11-29T04:53:52.681Z,40.12
2022-11-29T04:54:52.643Z,40.12
2022-11-29T04:55:52.630Z,40.12
2022-11-29T04:56:52.618Z,40.18
2022-11-29T04:57:52.604Z,40.18
2022-11-29T04:58:52.584Z,40.18
2022-11-29T04:59:52.572Z,40.23
2022-11-29T05:00:52.559Z,40.07
2022-11-29T05:01:52.606Z,40.23
2022-11-29T05:02:52.597Z,40.23
2022-11-29T05:03:56.861Z,40.23
2022-11-29T05:04:52.512Z,40.18
2022-11-29T05:05:52.509Z,40.07
2022-11-29T05:06:52.492Z,40.18
2022-11-29T05:07:52.558Z,40.18
2022-11-29T05:08:52.460Z,40.23
2022-11-29T05:09:52.472Z,40.18
2022-11-29T05:10:52.435Z,40.07
2022-11-29T05:11:52.427Z,40.12
2022-11-29T05:12:52.410Z,40.23
2022-11-29T05:13:52.407Z,40.23
2022-11-29T05:14:52.387Z,40.23
2022-11-29T05:15:52.408Z,40.18
2022-11-29T05:16:52.367Z,40.18
2022-11-29T05:17:52.350Z,40.18
2022-11-29T05:18:52.336Z,40.18
2022-11-29T05:19:52.329Z,40.18
2022-11-29T05:20:52.311Z,40.18
2022-11-29T05:21:52.304Z,40.12
2022-11-29T05:22:52.289Z,40.23
2022-11-29T05:23:52.279Z,40.18
2022-11-29T05:24:52.260Z,40.23
2022-11-29T05:25:52.293Z,40.18
2022-11-29T05:26:52.240Z,40.18
2022-11-29T05:27:52.230Z,40.18
2022-11-29T05:28:52.215Z,40.23
2022-11-29T05:29:52.198Z,40.18
2022-11-29T05:30:52.214Z,40.18
2022-11-29T05:31:52.178Z,40.23
2022-11-29T05:32:52.163Z,40.12
2022-11-29T05:33:52.146Z,40.18
2022-11-29T05:34:52.139Z,40.18
2022-11-29T05:35:52.132Z,40.18
2022-11-29T05:36:52.108Z,40.12
2022-11-29T05:37:52.097Z,40.12
2022-11-29T05:38:52.085Z,40.12
2022-11-29T05:39:52.069Z,40.18
2022-11-29T05:40:52.066Z,40.07
2022-11-29T05:41:52.075Z,40.18
2022-11-29T05:42:52.032Z,40.12
2022-11-29T05:43:52.020Z,40.12
2022-11-29T05:44:52.013Z,40.18
2022-11-29T05:45:51.997Z,40.28
2022-11-29T05:46:52.088Z,40.23
2022-11-29T05:47:51.982Z,40.18
2022-11-29T05:48:51.972Z,40.12
2022-11-29T05:49:51.953Z,40.07
2022-11-29T05:50:51.933Z,40.12
2022-11-29T05:51:51.929Z,40.23
2022-11-29T05:52:51.916Z,40.12
2022-11-29T05:53:51.902Z,40.12
2022-11-29T05:54:51.890Z,40.18
2022-11-29T05:55:51.876Z,40.12
2022-11-29T05:56:51.869Z,40.23
2022-11-29T05:57:51.875Z,40.18
2022-11-29T05:58:51.833Z,40.18
2022-11-29T05:59:51.824Z,40.07
2022-11-29T06:00:51.808Z,40.18
2022-11-29T06:01:51.824Z,40.18
2022-11-29T06:02:51.818Z,40.18
2022-11-29T06:03:51.778Z,40.18
2022-11-29T06:04:51.757Z,40.23
2022-11-29T06:05:51.759Z,40.12
2022-11-29T06:06:51.732Z,40.18
2022-11-29T06:07:51.868Z,40.18
2022-11-29T06:08:51.716Z,40.12
2022-11-29T06:09:51.694Z,40.18
2022-11-29T06:10:51.685Z,40.18
2022-11-29T06:11:51.674Z,40.12
2022-11-29T06:12:51.655Z,40.18
2022-11-29T06:13:51.672Z,40.23
2022-11-29T06:14:51.628Z,40.18
2022-11-29T06:15:51.641Z,40.12
2022-11-29T06:16:51.614Z,40.18
2022-11-29T06:17:51.601Z,40.18
2022-11-29T06:18:51.570Z,40.18
2022-11-29T06:19:51.599Z,40.12
2022-11-29T06:20:51.564Z,40.28
2022-11-29T06:21:51.552Z,40.12
2022-11-29T06:22:51.536Z,40.07
2022-11-29T06:23:51.520Z,40.18
2022-11-29T06:24:51.507Z,40.12
2022-11-29T06:25:51.493Z,40.18
2022-11-29T06:26:51.488Z,40.18
2022-11-29T06:27:51.469Z,40.18
2022-11-29T06:28:51.455Z,40.23
2022-11-29T06:29:51.574Z,40.18
2022-11-29T06:30:51.435Z,40.18
2022-11-29T06:31:51.418Z,40.07
2022-11-29T06:32:51.403Z,40.23
2022-11-29T06:33:51.387Z,40.12
2022-11-29T06:34:51.380Z,40.12
2022-11-29T06:35:51.366Z,40.18
2022-11-29T06:36:51.359Z,40.28
2022-11-29T06:37:51.348Z,40.23
2022-11-29T06:38:51.330Z,40.12
2022-11-29T06:39:51.327Z,40.23
2022-11-29T06:40:51.310Z,40.07
2022-11-29T06:41:51.297Z,40.12
2022-11-29T06:42:51.279Z,40.23
2022-11-29T06:43:51.265Z,40.23
2022-11-29T06:44:51.258Z,40.23
2022-11-29T06:45:51.276Z,40.18
2022-11-29T06:46:51.269Z,40.07
2022-11-29T06:47:51.220Z,40.23
2022-11-29T06:48:51.213Z,40.12
2022-11-29T06:49:51.191Z,40.18
2022-11-29T06:50:51.177Z,40.12
2022-11-29T06:51:51.173Z,40.18
2022-11-29T06:52:51.161Z,40.07
2022-11-29T06:53:51.145Z,40.18
2022-11-29T06:54:51.125Z,40.12
2022-11-29T06:55:51.112Z,40.12
2022-11-29T06:56:51.103Z,40.28
2022-11-29T06:57:51.093Z,40.18
2022-11-29T06:58:51.080Z,40.12
2022-11-29T06:59:51.061Z,40.18
2022-11-29T07:00:51.117Z,40.23
2022-11-29T07:01:51.161Z,40.12
2022-11-29T07:02:51.029Z,40.23
2022-11-29T07:03:51.011Z,40.18
2022-11-29T07:04:51.472Z,40.18
2022-11-29T07:05:50.984Z,40.12
2022-11-29T07:06:50.972Z,40.12
2022-11-29T07:07:51.025Z,40.23
2022-11-29T07:08:50.945Z,40.18
2022-11-29T07:09:50.946Z,40.12
2022-11-29T07:10:50.925Z,40.12
2022-11-29T07:11:50.935Z,40.18
2022-11-29T07:12:50.895Z,40.18
2022-11-29T07:13:50.882Z,40.12
2022-11-29T07:14:50.874Z,40.23
2022-11-29T07:15:50.912Z,40.12
2022-11-29T07:16:55.895Z,40.18
2022-11-29T07:17:51.896Z,40.18
2022-11-29T07:18:50.837Z,40.23
2022-11-29T07:19:50.808Z,40.23
2022-11-29T07:20:50.794Z,40.18
2022-11-29T07:21:50.785Z,40.18
2022-11-29T07:22:50.769Z,40.12
2022-11-29T07:23:50.763Z,40.18
2022-11-29T07:24:50.753Z,40.34
2022-11-29T07:25:50.733Z,40.18
2022-11-29T07:26:55.152Z,40.18
2022-11-29T07:27:51.758Z,40.23
2022-11-29T07:28:50.696Z,40.12
2022-11-29T07:29:50.694Z,40.12
2022-11-29T07:30:50.678Z,40.12
2022-11-29T07:31:50.770Z,40.12
2022-11-29T07:32:53.699Z,40.18
2022-11-29T07:33:50.657Z,40.12
2022-11-29T07:34:50.638Z,40.18
2022-11-29T07:35:50.617Z,40.12
2022-11-29T07:36:50.593Z,40.18
2022-11-29T07:37:50.606Z,40.18
2022-11-29T07:38:50.583Z,40.18
2022-11-29T07:39:50.559Z,40.18
2022-11-29T07:40:50.554Z,40.12
2022-11-29T07:41:50.539Z,40.12
2022-11-29T07:42:50.518Z,40.18
2022-11-29T07:43:50.515Z,40.07
2022-11-29T07:44:50.496Z,40.12
2022-11-29T07:45:50.489Z,40.12
2022-11-29T07:46:50.550Z,40.12
2022-11-29T07:47:50.462Z,40.12
2022-11-29T07:48:50.451Z,40.12
2022-11-29T07:49:50.459Z,40.12
2022-11-29T07:50:50.426Z,40.23
2022-11-29T07:51:50.406Z,40.12
2022-11-29T07:52:50.403Z,40.18
2022-11-29T07:53:50.380Z,40.12
2022-11-29T07:54:50.368Z,40.12
2022-11-29T07:55:50.364Z,40.18
2022-11-29T07:56:50.344Z,40.23
2022-11-29T07:57:50.329Z,40.23
2022-11-29T07:58:50.373Z,40.18
2022-11-29T07:59:50.312Z,40.18
2022-11-29T08:00:50.364Z,40.18
2022-11-29T08:01:50.372Z,40.18
2022-11-29T08:02:50.276Z,40.18
2022-11-29T08:03:50.261Z,40.12
2022-11-29T08:04:50.245Z,40.12
2022-11-29T08:05:50.265Z,40.23
2022-11-29T08:06:50.221Z,40.18
2022-11-29T08:07:50.249Z,40.23
2022-11-29T08:08:50.188Z,40.12
2022-11-29T08:09:50.196Z,40.12
2022-11-29T08:10:50.170Z,40.12
2022-11-29T08:11:50.160Z,40.12
2022-11-29T08:12:50.194Z,40.18
2022-11-29T08:13:50.128Z,40.18
2022-11-29T08:14:50.114Z,40.18
2022-11-29T08:15:50.108Z,40.18
2022-11-29T08:16:50.138Z,40.18
2022-11-29T08:17:50.088Z,40.28
2022-11-29T08:18:50.097Z,40.23
2022-11-29T08:19:50.059Z,40.12
2022-11-29T08:20:50.047Z,40.12
2022-11-29T08:21:50.055Z,40.07
2022-11-29T08:22:50.024Z,40.18
2022-11-29T08:23:50.008Z,40.23
2022-11-29T08:24:49.994Z,40.12
2022-11-29T08:25:49.992Z,40.23
2022-11-29T08:26:49.973Z,40.12
2022-11-29T08:27:49.949Z,40.18
2022-11-29T08:28:49.947Z,40.18
2022-11-29T08:29:49.927Z,40.18
2022-11-29T08:30:49.925Z,40.18
2022-11-29T08:31:49.952Z,40.12
2022-11-29T08:32:51.567Z,40.12
2022-11-29T08:33:49.884Z,40.12
2022-11-29T08:34:49.871Z,40.23
2022-11-29T08:35:49.868Z,40.18
2022-11-29T08:36:49.856Z,40.18
2022-11-29T08:37:49.855Z,40.23
2022-11-29T08:38:52.680Z,40.23
2022-11-29T08:39:50.839Z,40.12
2022-11-29T08:40:49.792Z,40.18
2022-11-29T08:41:49.785Z,40.18
2022-11-29T08:42:49.771Z,40.23
2022-11-29T08:43:49.768Z,40.18
2022-11-29T08:44:49.745Z,40.12
2022-11-29T08:45:49.802Z,40.12
2022-11-29T08:46:49.722Z,40.07
2022-11-29T08:47:49.704Z,40.07
2022-11-29T08:48:49.696Z,40.12
2022-11-29T08:49:49.684Z,40.12
2022-11-29T08:50:49.662Z,40.12
2022-11-29T08:51:49.656Z,40.12
2022-11-29T08:52:49.637Z,40.12
2022-11-29T08:53:49.666Z,40.23
2022-11-29T08:54:49.615Z,40.18
2022-11-29T08:55:49.599Z,40.12
2022-11-29T08:57:37.903Z,40.23
2022-11-29T08:57:50.605Z,40.18
2022-11-29T08:58:49.561Z,40.12
2022-11-29T08:59:49.551Z,40.18
2022-11-29T09:00:49.622Z,40.12
2022-11-29T09:01:49.577Z,40.18
2022-11-29T09:02:49.520Z,40.12
2022-11-29T09:03:49.501Z,40.12
2022-11-29T09:04:49.493Z,40.18
2022-11-29T09:05:49.475Z,40.18
2022-11-29T09:06:49.477Z,40.12
2022-11-29T09:07:49.508Z,40.23
2022-11-29T09:08:49.442Z,40.18
2022-11-29T09:09:49.457Z,40.18
2022-11-29T09:10:49.414Z,40.18
2022-11-29T09:11:49.853Z,40.28
2022-11-29T09:12:49.394Z,40.12
2022-11-29T09:13:49.388Z,40.18
2022-11-29T09:14:49.362Z,40.18
2022-11-29T09:15:49.360Z,40.18
2022-11-29T09:16:49.366Z,40.12
2022-11-29T09:17:49.326Z,40.18
2022-11-29T09:18:51.978Z,40.12
2022-11-29T09:19:49.309Z,40.18
2022-11-29T09:20:49.299Z,40.12
2022-11-29T09:21:49.295Z,40.18
2022-11-29T09:22:49.274Z,40.23
2022-11-29T09:23:49.262Z,40.12
2022-11-29T09:24:49.241Z,40.23
2022-11-29T09:25:49.259Z,40.12
2022-11-29T09:26:49.220Z,40.18
2022-11-29T09:27:49.210Z,40.18
2022-11-29T09:28:49.200Z,40.23
2022-11-29T09:29:49.185Z,40.12
2022-11-29T09:30:49.165Z,40.18
2022-11-29T09:31:49.190Z,40.18
2022-11-29T09:32:49.148Z,40.18
2022-11-29T09:33:49.127Z,40.28
2022-11-29T09:34:49.122Z,40.18
2022-11-29T09:35:49.103Z,40.18
2022-11-29T09:36:49.112Z,40.28
2022-11-29T09:37:49.079Z,40.28
2022-11-29T09:38:49.070Z,40.12
2022-11-29T09:39:49.059Z,40.23
2022-11-29T09:40:49.037Z,40.18
2022-11-29T09:41:49.067Z,40.12
2022-11-29T09:42:49.018Z,40.23
2022-11-29T09:43:49.002Z,40.18
2022-11-29T09:44:49.076Z,40.23
2022-11-29T09:45:49.066Z,40.18
2022-11-29T09:46:50.493Z,40.12
2022-11-29T09:47:48.959Z,40.12
2022-11-29T09:48:48.954Z,40.23
2022-11-29T09:49:48.934Z,40.18
2022-11-29T09:50:48.921Z,40.18
2022-11-29T09:51:48.916Z,40.12
2022-11-29T09:52:48.888Z,40.07
2022-11-29T09:53:48.885Z,40.23
2022-11-29T09:54:48.868Z,40.23
2022-11-29T09:55:48.852Z,39.04
2022-11-29T09:56:48.845Z,40.18
2022-11-29T09:57:48.856Z,40.18
2022-11-29T09:58:48.819Z,40.12
2022-11-29T09:59:48.810Z,40.12
2022-11-29T10:00:48.870Z,40.18
2022-11-29T10:01:48.784Z,40.18
2022-11-29T10:02:48.795Z,40.23
2022-11-29T10:03:48.753Z,40.18
2022-11-29T10:04:48.761Z,40.18
2022-11-29T10:05:48.737Z,40.18
2022-11-29T10:06:48.718Z,40.28
2022-11-29T10:07:48.743Z,40.12
2022-11-29T10:08:48.704Z,40.12
2022-11-29T10:09:48.688Z,40.18
2022-11-29T10:10:48.676Z,40.28
2022-11-29T10:11:48.663Z,40.12
2022-11-29T10:12:48.647Z,40.12
2022-11-29T10:13:48.664Z,40.23
2022-11-29T10:14:48.719Z,40.18
2022-11-29T10:15:48.608Z,40.23
2022-11-29T10:16:48.655Z,40.23
2022-11-29T10:17:48.579Z,40.18
2022-11-29T10:18:48.580Z,40.12
2022-11-29T10:19:48.565Z,40.18
2022-11-29T10:20:49.357Z,40.12
2022-11-29T10:21:48.531Z,40.23
2022-11-29T10:22:48.522Z,40.18
2022-11-29T10:23:48.507Z,40.18
2022-11-29T10:24:48.580Z,40.12
2022-11-29T10:25:48.484Z,40.12
2022-11-29T10:26:48.478Z,40.18
2022-11-29T10:27:48.461Z,40.12
2022-11-29T10:28:48.450Z,40.18
2022-11-29T10:29:48.469Z,38.99
2022-11-29T10:30:48.499Z,40.23
2022-11-29T10:31:48.412Z,40.12
2022-11-29T10:32:48.390Z,40.18
2022-11-29T10:33:48.393Z,40.23
2022-11-29T10:34:48.370Z,40.18
2022-11-29T10:35:48.363Z,40.18
2022-11-29T10:36:48.346Z,40.18
2022-11-29T10:38:07.695Z,40.23
2022-11-29T10:38:49.361Z,40.23
2022-11-29T10:39:48.303Z,40.12
2022-11-29T10:40:48.305Z,40.18
2022-11-29T10:41:48.290Z,40.12
2022-11-29T10:42:48.262Z,40.18
2022-11-29T10:43:48.255Z,40.18
2022-11-29T10:44:48.241Z,40.18
2022-11-29T10:45:50.117Z,40.18
2022-11-29T10:46:48.222Z,40.18
2022-11-29T10:47:48.202Z,40.18
2022-11-29T10:48:48.200Z,40.23
2022-11-29T10:49:48.177Z,40.23
2022-11-29T10:50:48.171Z,40.18
2022-11-29T10:51:48.162Z,40.23
2022-11-29T10:52:48.147Z,40.23
2022-11-29T10:53:48.129Z,40.07
2022-11-29T10:54:48.449Z,40.07
2022-11-29T10:55:48.102Z,40.18
2022-11-29T10:56:48.096Z,40.18
2022-11-29T10:57:48.082Z,40.18
2022-11-29T10:58:48.075Z,40.18
2022-11-29T10:59:48.052Z,40.18
2022-11-29T11:00:48.047Z,40.12
2022-11-29T11:01:48.088Z,40.18
2022-11-29T11:02:48.025Z,40.18
2022-11-29T11:03:52.656Z,40.12
2022-11-29T11:04:48.143Z,42.44
2022-11-29T11:05:48.048Z,42.50
2022-11-29T11:06:47.964Z,40.23
2022-11-29T11:07:48.000Z,42.55
2022-11-29T11:08:47.942Z,40.12
2022-11-29T11:09:47.932Z,40.12
2022-11-29T11:10:53.023Z,40.23
2022-11-29T11:11:48.934Z,40.18
2022-11-29T11:12:47.894Z,40.18
2022-11-29T11:13:47.884Z,40.18
2022-11-29T11:14:48.190Z,40.07
2022-11-29T11:15:47.862Z,40.12
2022-11-29T11:16:47.863Z,42.50
2022-11-29T11:17:47.859Z,40.12
2022-11-29T11:18:47.815Z,40.12
2022-11-29T11:19:47.808Z,40.12
2022-11-29T11:20:47.799Z,40.18
2022-11-29T11:21:47.776Z,40.18
2022-11-29T11:22:47.763Z,42.55
2022-11-29T11:23:47.758Z,40.23
2022-11-29T11:24:47.939Z,40.18
2022-11-29T11:25:47.726Z,42.44
2022-11-29T11:26:47.720Z,42.50
2022-11-29T11:27:47.713Z,40.18
2022-11-29T11:28:47.693Z,40.07
2022-11-29T11:29:47.679Z,40.18
2022-11-29T11:30:47.692Z,40.12
2022-11-29T11:31:47.652Z,42.55
2022-11-29T11:32:47.649Z,40.18
2022-11-29T11:33:47.672Z,40.50
2022-11-29T11:34:47.851Z,42.50
2022-11-29T11:35:47.610Z,40.18
2022-11-29T11:36:47.600Z,42.55
2022-11-29T11:37:47.586Z,42.55
2022-11-29T11:38:47.570Z,42.55
2022-11-29T11:39:47.662Z,42.50
2022-11-29T11:40:47.545Z,42.50
2022-11-29T11:41:47.526Z,40.23
2022-11-29T11:42:47.517Z,40.28
2022-11-29T11:43:47.507Z,42.44
2022-11-29T11:44:48.256Z,40.12
2022-11-29T11:45:47.519Z,42.55
2022-11-29T11:46:47.553Z,42.50
2022-11-29T11:47:47.452Z,42.50
2022-11-29T11:48:47.438Z,40.12
2022-11-29T11:49:47.458Z,42.55
2022-11-29T11:50:47.413Z,42.50
2022-11-29T11:51:47.403Z,40.18
2022-11-29T11:52:50.556Z,42.44
2022-11-29T11:53:47.380Z,42.50
2022-11-29T11:54:47.393Z,42.44
2022-11-29T11:55:47.359Z,42.61
2022-11-29T11:56:47.348Z,42.50
2022-11-29T11:57:47.323Z,40.18
2022-11-29T11:58:47.313Z,42.50
2022-11-29T11:59:47.299Z,42.55
2022-11-29T12:01:03.531Z,40.23
2022-11-29T12:01:48.313Z,42.44
2022-11-29T12:02:47.404Z,42.55
2022-11-29T12:03:47.248Z,42.44
2022-11-29T12:04:47.540Z,42.50
2022-11-29T12:05:47.316Z,42.50
2022-11-29T12:06:47.213Z,42.55
2022-11-29T12:08:10.142Z,42.44
2022-11-29T12:08:48.281Z,42.50
2022-11-29T12:09:47.174Z,40.12
2022-11-29T12:10:47.162Z,42.50
2022-11-29T12:11:47.142Z,42.50
2022-11-29T12:12:47.137Z,42.50
2022-11-29T12:13:47.120Z,42.39
2022-11-29T12:14:47.408Z,42.55
2022-11-29T12:15:47.135Z,42.50
2022-11-29T12:16:47.081Z,42.61
2022-11-29T12:17:47.065Z,42.50
2022-11-29T12:18:47.054Z,42.34
2022-11-29T12:19:47.036Z,42.50
2022-11-29T12:20:47.025Z,42.55
2022-11-29T12:21:47.031Z,42.55
2022-11-29T12:22:48.563Z,42.44
2022-11-29T12:23:46.988Z,42.50
2022-11-29T12:24:47.395Z,42.50
2022-11-29T12:25:47.057Z,42.61
2022-11-29T12:27:02.300Z,42.50
2022-11-29T12:27:47.971Z,42.50
2022-11-29T12:28:46.921Z,42.50
2022-11-29T12:29:46.919Z,42.44
2022-11-29T12:30:46.938Z,42.50
2022-11-29T12:31:46.900Z,42.50
2022-11-29T12:32:46.873Z,42.55
2022-11-29T12:33:46.859Z,42.55
2022-11-29T12:34:47.143Z,42.50
2022-11-29T12:35:46.831Z,42.61
2022-11-29T12:36:46.827Z,42.50
2022-11-29T12:37:46.821Z,42.55
2022-11-29T12:38:46.800Z,42.50
2022-11-29T12:39:46.785Z,42.66
2022-11-29T12:40:46.772Z,42.55
2022-11-29T12:41:52.445Z,42.61
2022-11-29T12:42:47.763Z,42.55
2022-11-29T12:43:46.721Z,42.55
2022-11-29T12:44:46.883Z,42.55
2022-11-29T12:45:46.702Z,42.50
2022-11-29T12:46:46.754Z,42.50
2022-11-29T12:47:51.640Z,42.50
2022-11-29T12:48:46.665Z,42.55
2022-11-29T12:49:46.651Z,42.50
2022-11-29T12:50:46.632Z,42.55
2022-11-29T12:51:46.616Z,42.55
2022-11-29T12:52:46.619Z,42.55